Time;durP1;ratioP1;P1;durP2;ratioP2;P2;SDS_P1;SDS_P2;PMS_P1;PMS_P2;Temp;Humidity;BMP_temperature;BMP_pressure;BME280_temperature;BME280_humidity;BME280_pressure;Samples;Min_cycle;Max_cycle;Signal;HPM_P1;HPM_P2
2021/01/14 00:00:08;;;;;;;3.58;1.98;;;;;;;;;;5091326;28;20169;-50
2021/01/14 00:02:34;;;;;;;6.13;2.00;;;;;;;;;;5092506;28;20197;-53
2021/01/14 00:05:00;;;;;;;4.18;3.00;;;;;;;;;;5092244;28;20197;-50
2021/01/14 00:07:26;;;;;;;7.38;2.53;;;;;;;;;;5092063;28;20580;-50
2021/01/14 00:09:52;;;;;;;28.57;5.77;;;;;;;;;;5092207;28;20199;-50
2021/01/14 00:12:18;;;;;;;6.88;1.98;;;;;;;;;;5092043;28;20455;-49
2021/01/14 00:14:44;;;;;;;4.87;2.43;;;;;;;;;;5091026;28;20571;-51
2021/01/14 00:17:10;;;;;;;5.70;2.23;;;;;;;;;;5091848;28;20396;-51
2021/01/14 00:19:36;;;;;;;10.93;2.73;;;;;;;;;;5092126;28;20429;-51
2021/01/14 00:22:02;;;;;;;3.03;1.80;;;;;;;;;;5091808;28;20447;-50
2021/01/14 00:24:28;;;;;;;6.35;2.28;;;;;;;;;;5092213;28;20201;-51
2021/01/14 00:26:54;;;;;;;6.07;2.03;;;;;;;;;;5091561;28;20627;-51
2021/01/14 00:29:20;;;;;;;9.37;2.00;;;;;;;;;;5092023;28;20410;-50
2021/01/14 00:31:46;;;;;;;3.53;2.23;;;;;;;;;;5090405;28;20459;-50
2021/01/14 00:34:14;;;;;;;4.83;2.10;;;;;;;;;;5091842;28;20402;-50
2021/01/14 00:39:26;;;;;;;4.35;1.85;;;;;;;;;;5091828;28;20282;-51
2021/01/14 00:41:52;;;;;;;4.97;2.05;;;;;;;;;;5091541;28;20216;-50
2021/01/14 00:44:18;;;;;;;2.80;1.98;;;;;;;;;;5091691;28;20170;-51
2021/01/14 00:46:44;;;;;;;6.90;2.40;;;;;;;;;;5091291;28;20184;-51
2021/01/14 00:49:10;;;;;;;7.15;2.05;;;;;;;;;;5091516;28;20487;-50
2021/01/14 00:51:36;;;;;;;7.13;1.90;;;;;;;;;;5091237;28;20224;-50
2021/01/14 00:54:03;;;;;;;6.72;2.22;;;;;;;;;;5091178;28;20252;-50
2021/01/14 00:56:36;;;;;;;10.40;2.40;;;;;;;;;;5091197;28;20294;-52
2021/01/14 00:59:02;;;;;;;3.22;1.80;;;;;;;;;;5091391;28;20166;-51
2021/01/14 01:01:28;;;;;;;4.30;2.05;;;;;;;;;;5089519;28;20201;-51
2021/01/14 01:03:54;;;;;;;6.03;1.98;;;;;;;;;;5091341;28;20168;-51
2021/01/14 01:06:39;;;;;;;5.50;1.92;;;;;;;;;;5091149;28;20167;-51
2021/01/14 01:09:06;;;;;;;4.75;2.35;;;;;;;;;;5091170;28;20559;-51
2021/01/14 01:11:32;;;;;;;8.15;2.55;;;;;;;;;;5091097;28;20280;-51
2021/01/14 01:13:58;;;;;;;4.43;1.88;;;;;;;;;;5091403;28;20607;-52
2021/01/14 01:16:24;;;;;;;6.90;2.00;;;;;;;;;;5091087;28;20625;-51
2021/01/14 01:18:50;;;;;;;8.35;2.83;;;;;;;;;;5091281;28;20173;-52
2021/01/14 01:21:16;;;;;;;10.57;2.17;;;;;;;;;;5091422;28;20185;-52
2021/01/14 01:23:42;;;;;;;6.50;1.90;;;;;;;;;;5091158;28;20477;-53
2021/01/14 01:26:08;;;;;;;9.68;1.85;;;;;;;;;;5091015;28;20203;-50
2021/01/14 01:28:34;;;;;;;4.57;1.63;;;;;;;;;;5090826;28;20211;-51
2021/01/14 01:31:01;;;;;;;3.85;1.75;;;;;;;;;;5088915;28;20938;-51
2021/01/14 01:33:27;;;;;;;7.97;2.10;;;;;;;;;;5090923;28;20169;-51
2021/01/14 01:35:53;;;;;;;12.52;2.33;;;;;;;;;;5090588;28;20165;-52
2021/01/14 01:38:20;;;;;;;5.40;2.45;;;;;;;;;;5090869;28;20174;-50
2021/01/14 01:40:53;;;;;;;5.43;2.10;;;;;;;;;;5090693;28;20176;-50
2021/01/14 01:43:19;;;;;;;3.33;2.08;;;;;;;;;;5090879;28;20659;-51
2021/01/14 01:45:45;;;;;;;6.30;1.80;;;;;;;;;;5090461;28;20169;-51
2021/01/14 01:48:11;;;;;;;3.90;1.80;;;;;;;;;;5090988;28;20832;-51
2021/01/14 01:50:37;;;;;;;8.23;1.92;;;;;;;;;;5090626;28;20196;-51
2021/01/14 01:53:03;;;;;;;6.35;1.90;;;;;;;;;;5090667;28;20182;-51
2021/01/14 01:55:29;;;;;;;9.07;1.80;;;;;;;;;;5090318;28;20310;-51
2021/01/14 01:57:55;;;;;;;5.10;2.30;;;;;;;;;;5090646;28;20410;-51
2021/01/14 02:00:22;;;;;;;9.30;2.10;;;;;;;;;;5089422;28;20177;-52
2021/01/14 02:02:47;;;;;;;7.22;2.00;;;;;;;;;;5089738;28;20426;-52
2021/01/14 02:05:13;;;;;;;6.17;2.10;;;;;;;;;;5090189;28;20166;-51
2021/01/14 02:07:48;;;;;;;5.30;1.80;;;;;;;;;;5094331;28;20404;-51
2021/01/14 02:10:34;;;;;;;3.55;1.67;;;;;;;;;;5094485;28;20810;-51
2021/01/14 02:13:05;;;;;;;13.02;2.08;;;;;;;;;;5094437;28;20204;-51
2021/01/14 02:15:32;;;;;;;2.08;1.90;;;;;;;;;;5094383;28;20199;-52
2021/01/14 02:17:58;;;;;;;8.13;2.10;;;;;;;;;;5076264;28;20166;-50
2021/01/14 02:20:24;;;;;;;3.50;1.50;;;;;;;;;;5094497;28;20249;-50
2021/01/14 02:23:09;;;;;;;5.45;2.00;;;;;;;;;;5094093;28;20234;-51
2021/01/14 02:25:45;;;;;;;5.20;1.90;;;;;;;;;;5094095;28;20223;-51
2021/01/14 02:28:12;;;;;;;3.95;1.90;;;;;;;;;;5094180;28;20236;-51
2021/01/14 02:30:38;;;;;;;1.88;1.70;;;;;;;;;;5092339;28;20208;-51
2021/01/14 02:33:04;;;;;;;9.13;2.50;;;;;;;;;;5094046;28;20189;-50
2021/01/14 02:35:30;;;;;;;5.05;3.13;;;;;;;;;;5093900;28;20403;-51
2021/01/14 02:37:56;;;;;;;5.20;2.20;;;;;;;;;;5093992;28;20200;-51
2021/01/14 02:40:22;;;;;;;5.67;1.30;;;;;;;;;;5094145;28;20445;-51
2021/01/14 02:42:47;;;;;;;12.13;1.90;;;;;;;;;;5093869;28;20416;-51
2021/01/14 02:45:14;;;;;;;2.10;2.00;;;;;;;;;;5093876;28;20415;-51
2021/01/14 02:47:44;;;;;;;4.07;1.75;;;;;;;;;;5093870;28;20396;-51
2021/01/14 02:50:12;;;;;;;3.47;2.45;;;;;;;;;;5094038;28;20552;-51
2021/01/14 02:52:38;;;;;;;7.90;1.98;;;;;;;;;;5093829;28;20208;-51
2021/01/14 02:55:04;;;;;;;4.50;1.63;;;;;;;;;;5094056;28;20234;-51
2021/01/14 02:57:31;;;;;;;3.20;1.65;;;;;;;;;;5093677;28;20172;-51
2021/01/14 03:00:00;;;;;;;7.78;2.17;;;;;;;;;;5093776;28;20162;-52
2021/01/14 03:02:26;;;;;;;11.00;2.35;;;;;;;;;;5092312;28;20201;-51
2021/01/14 03:04:52;;;;;;;5.17;2.20;;;;;;;;;;5093478;28;20645;-51
2021/01/14 03:07:18;;;;;;;8.70;1.50;;;;;;;;;;5093283;28;20393;-51
2021/01/14 03:09:44;;;;;;;5.20;2.53;;;;;;;;;;5093396;28;20403;-49
2021/01/14 03:12:10;;;;;;;10.50;1.80;;;;;;;;;;5093191;28;20459;-50
2021/01/14 03:14:36;;;;;;;6.63;1.73;;;;;;;;;;5093336;28;20414;-50
2021/01/14 03:17:02;;;;;;;5.93;2.00;;;;;;;;;;5092676;28;20435;-51
2021/01/14 03:19:28;;;;;;;4.13;1.83;;;;;;;;;;5093257;28;20460;-50
2021/01/14 03:22:00;;;;;;;9.02;2.00;;;;;;;;;;5093250;28;20438;-50
2021/01/14 03:24:27;;;;;;;5.03;2.00;;;;;;;;;;5093194;28;20174;-51
2021/01/14 03:26:53;;;;;;;7.90;1.90;;;;;;;;;;5092930;28;20169;-50
2021/01/14 03:29:19;;;;;;;6.55;2.00;;;;;;;;;;5092926;28;20558;-50
2021/01/14 03:31:45;;;;;;;6.63;2.07;;;;;;;;;;5091067;28;20258;-51
2021/01/14 03:34:11;;;;;;;6.03;1.50;;;;;;;;;;5093037;28;20403;-51
2021/01/14 03:36:56;;;;;;;3.77;1.97;;;;;;;;;;5092713;28;20404;-51
2021/01/14 03:39:22;;;;;;;6.40;2.20;;;;;;;;;;5093153;28;20403;-52
2021/01/14 03:41:48;;;;;;;4.00;1.95;;;;;;;;;;5092734;28;20199;-51
2021/01/14 03:44:14;;;;;;;9.10;2.20;;;;;;;;;;5092807;28;20260;-51
2021/01/14 03:46:40;;;;;;;5.13;1.67;;;;;;;;;;5092446;28;20445;-51
2021/01/14 03:49:06;;;;;;;7.27;2.40;;;;;;;;;;5092723;28;20399;-50
2021/01/14 03:51:32;;;;;;;2.90;1.93;;;;;;;;;;5092347;28;20478;-51
2021/01/14 03:53:58;;;;;;;3.23;2.03;;;;;;;;;;5092679;28;20435;-51
2021/01/14 03:56:23;;;;;;;2.90;2.13;;;;;;;;;;5092196;28;20396;-51
2021/01/14 03:58:49;;;;;;;8.03;2.07;;;;;;;;;;5092509;28;20408;-51
2021/01/14 04:01:15;;;;;;;3.73;1.50;;;;;;;;;;5091722;28;20510;-49
2021/01/14 04:03:42;;;;;;;3.33;2.03;;;;;;;;;;5091100;28;20419;-51
2021/01/14 04:06:08;;;;;;;3.38;1.85;;;;;;;;;;5091993;28;20403;-52
2021/01/14 04:08:34;;;;;;;4.18;2.03;;;;;;;;;;5092469;28;20201;-51
2021/01/14 04:11:00;;;;;;;6.15;1.90;;;;;;;;;;5092010;28;20583;-51
2021/01/14 04:13:26;;;;;;;9.60;2.07;;;;;;;;;;5092311;28;20161;-52
2021/01/14 04:15:52;;;;;;;8.13;2.00;;;;;;;;;;5092018;28;20404;-51
2021/01/14 04:18:18;;;;;;;1.97;1.87;;;;;;;;;;5092172;28;20423;-51
2021/01/14 04:20:44;;;;;;;6.43;2.72;;;;;;;;;;5092282;28;20464;-51
2021/01/14 04:23:10;;;;;;;3.80;2.00;;;;;;;;;;5091961;28;20728;-50
2021/01/14 04:25:36;;;;;;;15.90;2.95;;;;;;;;;;5091896;28;20425;-51
2021/01/14 04:28:04;;;;;;;3.90;1.90;;;;;;;;;;5091600;28;20260;-50
2021/01/14 04:30:32;;;;;;;3.70;2.03;;;;;;;;;;5092205;28;20424;-51
2021/01/14 04:33:09;;;;;;;3.42;1.85;;;;;;;;;;5089824;28;20190;-51
2021/01/14 04:35:35;;;;;;;5.30;2.10;;;;;;;;;;5091697;28;20197;-51
2021/01/14 04:38:02;;;;;;;8.90;2.87;;;;;;;;;;5091805;28;20651;-50
2021/01/14 04:40:28;;;;;;;4.55;2.05;;;;;;;;;;5091804;28;20388;-50
2021/01/14 04:42:54;;;;;;;7.70;2.03;;;;;;;;;;5091594;28;20284;-51
2021/01/14 04:45:21;;;;;;;5.22;2.15;;;;;;;;;;5091701;28;20853;-50
2021/01/14 04:47:50;;;;;;;6.25;2.70;;;;;;;;;;5091674;28;20169;-51
2021/01/14 04:50:17;;;;;;;3.63;1.85;;;;;;;;;;5091656;28;20246;-50
2021/01/14 04:52:43;;;;;;;7.43;2.03;;;;;;;;;;5091292;28;20703;-50
2021/01/14 04:55:15;;;;;;;2.85;1.70;;;;;;;;;;5091347;28;20184;-50
2021/01/14 04:57:45;;;;;;;3.47;2.10;;;;;;;;;;5091443;28;20158;-50
2021/01/14 05:00:12;;;;;;;8.23;2.20;;;;;;;;;;5091246;28;20177;-50
2021/01/14 05:02:45;;;;;;;4.78;2.30;;;;;;;;;;5090679;28;20201;-51
2021/01/14 05:05:13;;;;;;;5.45;2.25;;;;;;;;;;5091060;28;20173;-49
2021/01/14 05:07:46;;;;;;;5.60;2.08;;;;;;;;;;5091143;28;20206;-50
2021/01/14 05:10:13;;;;;;;13.55;3.35;;;;;;;;;;5091216;28;20161;-51
2021/01/14 05:12:42;;;;;;;10.80;2.28;;;;;;;;;;5091031;28;20235;-50
2021/01/14 05:15:08;;;;;;;9.68;2.45;;;;;;;;;;5091188;28;20547;-51
2021/01/14 05:17:34;;;;;;;3.53;2.53;;;;;;;;;;5090955;28;20173;-50
2021/01/14 05:20:00;;;;;;;8.45;2.60;;;;;;;;;;5090902;28;20626;-50
2021/01/14 05:22:26;;;;;;;14.87;2.30;;;;;;;;;;5091007;28;20337;-50
2021/01/14 05:25:08;;;;;;;4.57;2.22;;;;;;;;;;5089800;28;20768;-50
2021/01/14 05:27:35;;;;;;;8.65;3.08;;;;;;;;;;5090795;28;20199;-51
2021/01/14 05:30:01;;;;;;;12.93;2.85;;;;;;;;;;5090808;28;20722;-50
2021/01/14 05:32:41;;;;;;;4.80;2.47;;;;;;;;;;5090672;28;20279;-50
2021/01/14 05:35:08;;;;;;;5.30;1.85;;;;;;;;;;5090979;28;20173;-50
2021/01/14 05:37:35;;;;;;;5.65;1.95;;;;;;;;;;5090682;28;20166;-50
2021/01/14 05:40:03;;;;;;;4.65;2.40;;;;;;;;;;5090766;28;20259;-50
2021/01/14 05:42:29;;;;;;;2.05;1.67;;;;;;;;;;5090666;28;20340;-51
2021/01/14 05:44:55;;;;;;;2.10;1.90;;;;;;;;;;5090795;28;20173;-50
2021/01/14 05:47:21;;;;;;;4.37;2.70;;;;;;;;;;5090400;28;20402;-50
2021/01/14 05:49:53;;;;;;;6.30;2.42;;;;;;;;;;5090793;28;20486;-50
2021/01/14 05:52:22;;;;;;;8.70;2.40;;;;;;;;;;5090552;28;20235;-50
2021/01/14 05:54:53;;;;;;;5.82;2.40;;;;;;;;;;5089867;28;20173;-50
2021/01/14 05:57:19;;;;;;;4.25;2.83;;;;;;;;;;5090354;28;20196;-50
2021/01/14 05:59:49;;;;;;;5.68;2.33;;;;;;;;;;5090739;28;20174;-50
2021/01/14 06:02:26;;;;;;;3.83;2.28;;;;;;;;;;5090628;28;20193;-50
2021/01/14 06:04:52;;;;;;;7.68;3.17;;;;;;;;;;5090838;28;20256;-50
2021/01/14 06:07:18;;;;;;;3.30;2.10;;;;;;;;;;5090308;28;20201;-50
2021/01/14 06:09:45;;;;;;;12.40;3.47;;;;;;;;;;5090682;28;20391;-50
2021/01/14 06:12:12;;;;;;;5.75;2.38;;;;;;;;;;5090208;28;20205;-50
2021/01/14 06:14:38;;;;;;;8.27;3.03;;;;;;;;;;5090672;28;20689;-50
2021/01/14 06:17:05;;;;;;;7.00;2.33;;;;;;;;;;5090065;28;20178;-50
2021/01/14 06:19:31;;;;;;;3.20;2.50;;;;;;;;;;5090506;28;20176;-50
2021/01/14 06:21:58;;;;;;;6.05;2.90;;;;;;;;;;5090453;28;20185;-50
2021/01/14 06:24:28;;;;;;;6.18;2.63;;;;;;;;;;5089018;28;20215;-50
2021/01/14 06:27:06;;;;;;;2.38;2.13;;;;;;;;;;5090206;28;20197;-50
2021/01/14 06:29:34;;;;;;;5.95;2.47;;;;;;;;;;5089626;28;20825;-50
2021/01/14 06:32:15;;;;;;;8.00;2.50;;;;;;;;;;5089670;28;20216;-51
2021/01/14 06:34:42;;;;;;;5.55;2.78;;;;;;;;;;5089733;28;20235;-50
2021/01/14 06:37:12;;;;;;;8.23;2.30;;;;;;;;;;5089382;28;20158;-50
2021/01/14 06:39:39;;;;;;;11.93;3.25;;;;;;;;;;5089700;28;20566;-50
2021/01/14 06:42:14;;;;;;;6.75;2.67;;;;;;;;;;5089725;28;20213;-51
2021/01/14 06:44:42;;;;;;;5.00;2.63;;;;;;;;;;5089593;28;20505;-50
2021/01/14 06:47:16;;;;;;;3.60;2.10;;;;;;;;;;5089173;28;20174;-50
2021/01/14 06:49:46;;;;;;;4.85;2.63;;;;;;;;;;5089496;28;20173;-50
2021/01/14 06:52:15;;;;;;;10.25;3.80;;;;;;;;;;5091184;28;20203;-50
2021/01/14 06:54:41;;;;;;;3.75;2.50;;;;;;;;;;5091855;28;20565;-51
2021/01/14 06:57:14;;;;;;;6.20;2.70;;;;;;;;;;5092843;28;20201;-50
2021/01/14 06:59:41;;;;;;;6.68;2.70;;;;;;;;;;5092216;28;20180;-49
2021/01/14 07:02:07;;;;;;;6.43;2.63;;;;;;;;;;5091707;28;20201;-50
2021/01/14 07:04:45;;;;;;;4.60;2.55;;;;;;;;;;5093097;28;20174;-50
2021/01/14 07:07:29;;;;;;;8.57;2.78;;;;;;;;;;5092603;28;20184;-51
2021/01/14 07:10:08;;;;;;;6.32;3.17;;;;;;;;;;5092915;28;20173;-50
2021/01/14 07:12:35;;;;;;;3.63;2.60;;;;;;;;;;5092690;28;20247;-50
2021/01/14 07:15:06;;;;;;;4.78;2.60;;;;;;;;;;5093355;28;20173;-51
2021/01/14 07:17:37;;;;;;;9.05;2.78;;;;;;;;;;5093125;28;20166;-50
2021/01/14 07:20:05;;;;;;;4.13;3.13;;;;;;;;;;5093378;28;20238;-50
2021/01/14 07:22:32;;;;;;;6.18;2.30;;;;;;;;;;5093299;28;20186;-51
2021/01/14 07:25:01;;;;;;;6.70;2.58;;;;;;;;;;5091957;28;20192;-50
2021/01/14 07:27:27;;;;;;;4.15;2.13;;;;;;;;;;5093066;28;20585;-50
2021/01/14 07:29:56;;;;;;;6.82;3.08;;;;;;;;;;5093183;28;20879;-50
2021/01/14 07:32:42;;;;;;;6.03;2.67;;;;;;;;;;5092754;28;20821;-50
2021/01/14 07:35:28;;;;;;;11.52;2.65;;;;;;;;;;5091441;28;20628;-50
2021/01/14 07:37:54;;;;;;;10.05;3.20;;;;;;;;;;5072641;28;20656;-50
2021/01/14 07:40:28;;;;;;;7.07;3.50;;;;;;;;;;5072800;28;20743;-50
2021/01/14 07:42:54;;;;;;;3.95;3.47;;;;;;;;;;5072589;28;20750;-50
2021/01/14 07:45:20;;;;;;;10.10;3.83;;;;;;;;;;5072465;28;20174;-50
2021/01/14 07:47:46;;;;;;;8.15;3.33;;;;;;;;;;5072623;28;20623;-50
2021/01/14 07:50:18;;;;;;;6.30;2.97;;;;;;;;;;5072778;28;20260;-50
2021/01/14 07:52:45;;;;;;;8.85;2.83;;;;;;;;;;5072526;28;20468;-50
2021/01/14 07:55:11;;;;;;;12.63;2.85;;;;;;;;;;5081134;28;20245;-50
2021/01/14 07:57:46;;;;;;;3.30;2.87;;;;;;;;;;5092685;28;20252;-51
2021/01/14 08:00:21;;;;;;;11.57;3.40;;;;;;;;;;5092931;28;20426;-51
2021/01/14 08:03:05;;;;;;;7.53;2.83;;;;;;;;;;5092015;28;20201;-50
2021/01/14 08:05:56;;;;;;;3.38;3.00;;;;;;;;;;5092377;28;20179;-50
2021/01/14 08:08:34;;;;;;;12.75;3.33;;;;;;;;;;5092484;28;20172;-51
2021/01/14 08:11:07;;;;;;;6.60;3.08;;;;;;;;;;5092180;28;20224;-50
2021/01/14 08:13:53;;;;;;;5.80;3.22;;;;;;;;;;5092294;28;20701;-50
2021/01/14 08:16:34;;;;;;;11.57;4.15;;;;;;;;;;5091858;28;20169;-50
2021/01/14 08:19:10;;;;;;;8.45;5.07;;;;;;;;;;5092055;28;20254;-51
2021/01/14 08:21:36;;;;;;;7.35;4.22;;;;;;;;;;5092128;28;20185;-51
2021/01/14 08:24:02;;;;;;;8.18;4.85;;;;;;;;;;5091935;28;20629;-51
2021/01/14 08:26:28;;;;;;;6.80;4.13;;;;;;;;;;5090588;28;20189;-50
2021/01/14 08:29:00;;;;;;;14.43;5.43;;;;;;;;;;5091812;28;20177;-50
2021/01/14 08:31:35;;;;;;;8.90;4.78;;;;;;;;;;5091837;28;20456;-50
2021/01/14 08:34:02;;;;;;;6.50;4.85;;;;;;;;;;5091792;28;20167;-50
2021/01/14 08:36:29;;;;;;;14.75;5.90;;;;;;;;;;5091583;28;20158;-51
2021/01/14 08:38:56;;;;;;;10.93;7.32;;;;;;;;;;5091673;28;20162;-50
2021/01/14 08:41:27;;;;;;;10.25;6.85;;;;;;;;;;5091640;28;20225;-51
2021/01/14 08:43:53;;;;;;;12.27;6.82;;;;;;;;;;5091658;28;20623;-50
2021/01/14 08:46:38;;;;;;;11.27;6.93;;;;;;;;;;5091325;28;20534;-50
2021/01/14 08:49:14;;;;;;;13.57;8.18;;;;;;;;;;5097505;28;20204;-49
2021/01/14 08:51:42;;;;;;;10.45;5.88;;;;;;;;;;5091252;28;20276;-49
2021/01/14 08:54:08;;;;;;;9.43;6.03;;;;;;;;;;5091577;28;20168;-51
2021/01/14 08:56:34;;;;;;;19.67;10.27;;;;;;;;;;5089821;28;20177;-50
2021/01/14 08:59:04;;;;;;;68.70;34.17;;;;;;;;;;5091385;28;20177;-51
2021/01/14 09:01:32;;;;;;;31.77;16.35;;;;;;;;;;5091377;28;20564;-50
2021/01/14 09:03:58;;;;;;;8.10;5.25;;;;;;;;;;5091906;28;20161;-50
2021/01/14 09:06:29;;;;;;;7.50;5.45;;;;;;;;;;5091017;28;20192;-50
2021/01/14 09:08:57;;;;;;;7.45;4.78;;;;;;;;;;5091311;28;20214;-49
2021/01/14 09:11:27;;;;;;;9.02;4.88;;;;;;;;;;5090824;28;20201;-51
2021/01/14 09:14:05;;;;;;;6.07;5.40;;;;;;;;;;5091057;28;20169;-51
2021/01/14 09:16:31;;;;;;;8.90;5.30;;;;;;;;;;5090854;28;20174;-51
2021/01/14 09:18:57;;;;;;;6.97;5.07;;;;;;;;;;5091171;28;20173;-51
2021/01/14 09:21:23;;;;;;;5.22;4.72;;;;;;;;;;5091078;28;20197;-51
2021/01/14 09:23:49;;;;;;;4.70;4.30;;;;;;;;;;5090950;28;20698;-51
2021/01/14 09:26:20;;;;;;;6.68;4.95;;;;;;;;;;5089007;28;20178;-51
2021/01/14 09:28:53;;;;;;;6.78;5.00;;;;;;;;;;5090895;28;20813;-51
2021/01/14 09:31:20;;;;;;;5.43;4.38;;;;;;;;;;5090926;28;20232;-51
2021/01/14 09:33:47;;;;;;;6.90;4.90;;;;;;;;;;5090946;28;20243;-51
2021/01/14 09:36:16;;;;;;;5.95;4.57;;;;;;;;;;5090744;28;20172;-51
2021/01/14 09:38:54;;;;;;;13.57;4.75;;;;;;;;;;5090938;28;20630;-51
2021/01/14 09:41:30;;;;;;;6.10;5.60;;;;;;;;;;5091090;28;20678;-51
2021/01/14 09:43:57;;;;;;;9.63;5.15;;;;;;;;;;5090931;28;20257;-51
2021/01/14 09:46:24;;;;;;;6.38;5.13;;;;;;;;;;5090759;28;20181;-51
2021/01/14 09:48:55;;;;;;;5.90;5.03;;;;;;;;;;5090734;28;20178;-51
2021/01/14 09:51:21;;;;;;;6.95;5.45;;;;;;;;;;5091099;28;20306;-51
2021/01/14 09:53:49;;;;;;;5.90;4.50;;;;;;;;;;5091074;28;20200;-51
2021/01/14 09:56:17;;;;;;;5.00;4.50;;;;;;;;;;5088981;28;20496;-51
2021/01/14 09:58:45;;;;;;;4.78;4.30;;;;;;;;;;5090901;28;20204;-51
2021/01/14 10:01:12;;;;;;;7.53;4.85;;;;;;;;;;5090499;28;20176;-51
2021/01/14 10:03:38;;;;;;;8.98;4.70;;;;;;;;;;5089682;28;20157;-51
2021/01/14 10:06:04;;;;;;;7.28;4.28;;;;;;;;;;5089742;28;20631;-51
2021/01/14 10:08:30;;;;;;;9.23;4.82;;;;;;;;;;5090722;28;20196;-51
2021/01/14 10:10:57;;;;;;;4.78;4.00;;;;;;;;;;5090127;28;20220;-51
2021/01/14 10:13:23;;;;;;;3.72;3.40;;;;;;;;;;5090608;28;20733;-52
2021/01/14 10:15:49;;;;;;;5.03;3.45;;;;;;;;;;5090008;28;20178;-51
2021/01/14 10:18:26;;;;;;;3.90;3.53;;;;;;;;;;5090396;28;20705;-52
2021/01/14 10:21:02;;;;;;;3.63;3.20;;;;;;;;;;5090554;28;20813;-50
2021/01/14 10:23:28;;;;;;;3.80;3.50;;;;;;;;;;5090340;28;20531;-50
2021/01/14 10:25:55;;;;;;;4.38;3.20;;;;;;;;;;5089206;28;20177;-51
2021/01/14 10:28:21;;;;;;;7.38;3.30;;;;;;;;;;5081220;28;20230;-51
2021/01/14 10:30:47;;;;;;;5.05;3.40;;;;;;;;;;5073812;28;20185;-50
2021/01/14 10:33:13;;;;;;;3.63;3.33;;;;;;;;;;5073605;28;20191;-52
2021/01/14 10:35:39;;;;;;;4.10;3.50;;;;;;;;;;5074105;28;20778;-51
2021/01/14 10:38:06;;;;;;;11.50;4.28;;;;;;;;;;5073714;28;20170;-53
2021/01/14 10:40:34;;;;;;;10.40;4.22;;;;;;;;;;5073688;28;20647;-49
2021/01/14 10:43:01;;;;;;;5.20;3.55;;;;;;;;;;5073582;28;20700;-51
2021/01/14 10:45:27;;;;;;;8.90;4.47;;;;;;;;;;5073564;28;20181;-51
2021/01/14 10:48:05;;;;;;;5.35;3.67;;;;;;;;;;5073700;28;20697;-51
2021/01/14 10:50:31;;;;;;;4.53;3.47;;;;;;;;;;5073596;28;20215;-51
2021/01/14 10:52:57;;;;;;;3.90;3.30;;;;;;;;;;5073546;28;20202;-50
2021/01/14 10:55:23;;;;;;;4.28;3.70;;;;;;;;;;5073204;28;20751;-50
2021/01/14 10:57:53;;;;;;;4.37;3.40;;;;;;;;;;5093802;28;20188;-51
2021/01/14 11:00:23;;;;;;;6.38;3.60;;;;;;;;;;5093542;28;20463;-51
2021/01/14 11:02:59;;;;;;;6.18;3.83;;;;;;;;;;5093505;28;20275;-51
2021/01/14 11:05:38;;;;;;;15.93;4.38;;;;;;;;;;5093487;28;20176;-49
2021/01/14 11:08:08;;;;;;;7.53;4.75;;;;;;;;;;5093434;28;20226;-50
2021/01/14 11:10:34;;;;;;;7.90;4.22;;;;;;;;;;5093516;28;20166;-51
2021/01/14 11:13:05;;;;;;;4.60;3.53;;;;;;;;;;5093106;28;20292;-51
2021/01/14 11:15:31;;;;;;;6.35;3.45;;;;;;;;;;5093117;28;20403;-49
2021/01/14 11:17:59;;;;;;;5.88;4.25;;;;;;;;;;5093190;28;20196;-50
2021/01/14 11:20:25;;;;;;;13.15;3.78;;;;;;;;;;5093261;28;20161;-52
2021/01/14 11:22:50;;;;;;;4.53;4.13;;;;;;;;;;5093266;28;20558;-51
2021/01/14 11:25:16;;;;;;;4.90;4.40;;;;;;;;;;5093006;28;20419;-51
2021/01/14 11:27:42;;;;;;;5.80;4.70;;;;;;;;;;5090927;28;20431;-51
2021/01/14 11:30:09;;;;;;;5.90;4.60;;;;;;;;;;5093189;28;20928;-51
2021/01/14 11:32:34;;;;;;;22.92;4.40;;;;;;;;;;5092980;28;20459;-51
2021/01/14 11:35:00;;;;;;;4.20;3.70;;;;;;;;;;5093050;28;20169;-52
2021/01/14 11:37:26;;;;;;;5.97;4.80;;;;;;;;;;5092792;28;20474;-51
2021/01/14 11:39:52;;;;;;;7.20;4.33;;;;;;;;;;5093369;28;20405;-51
2021/01/14 11:42:18;;;;;;;6.67;4.33;;;;;;;;;;5093095;28;20454;-51
2021/01/14 11:44:44;;;;;;;4.13;3.73;;;;;;;;;;5092890;28;20399;-51
2021/01/14 11:47:10;;;;;;;5.87;3.90;;;;;;;;;;5092682;28;20501;-51
2021/01/14 11:49:36;;;;;;;4.70;3.63;;;;;;;;;;5092890;28;20449;-51
2021/01/14 11:52:02;;;;;;;4.80;3.50;;;;;;;;;;5092571;28;20829;-49
2021/01/14 11:54:28;;;;;;;5.70;4.20;;;;;;;;;;5089217;28;20411;-49
2021/01/14 11:56:55;;;;;;;7.07;3.57;;;;;;;;;;5076555;28;20169;-51
2021/01/14 11:59:21;;;;;;;7.00;4.43;;;;;;;;;;5092626;28;20478;-51
2021/01/14 12:01:47;;;;;;;6.03;4.30;;;;;;;;;;5092350;28;20279;-51
2021/01/14 12:04:13;;;;;;;12.30;4.03;;;;;;;;;;5092333;28;20411;-51
2021/01/14 12:06:39;;;;;;;4.83;3.80;;;;;;;;;;5092185;28;20404;-50
2021/01/14 12:09:05;;;;;;;7.33;4.00;;;;;;;;;;5090561;28;20396;-50
2021/01/14 12:11:31;;;;;;;3.80;3.50;;;;;;;;;;5082021;28;20458;-50
2021/01/14 12:13:57;;;;;;;4.23;3.83;;;;;;;;;;5091108;28;20403;-51
2021/01/14 12:16:23;;;;;;;8.43;4.13;;;;;;;;;;5090667;28;20832;-49
2021/01/14 12:18:49;;;;;;;5.45;3.65;;;;;;;;;;5089958;28;20169;-51
2021/01/14 12:21:18;;;;;;;6.03;3.47;;;;;;;;;;5090285;28;20653;-50
2021/01/14 12:23:47;;;;;;;4.30;3.90;;;;;;;;;;5090372;28;20445;-50
2021/01/14 12:26:13;;;;;;;10.40;4.28;;;;;;;;;;5088859;28;20178;-52
2021/01/14 12:28:39;;;;;;;4.82;4.30;;;;;;;;;;5090141;28;20173;-51
2021/01/14 12:31:05;;;;;;;6.80;4.30;;;;;;;;;;5090579;28;20185;-51
2021/01/14 12:33:31;;;;;;;4.85;3.97;;;;;;;;;;5091917;28;20904;-51
2021/01/14 12:35:58;;;;;;;8.30;3.92;;;;;;;;;;5090869;28;20200;-50
2021/01/14 12:38:24;;;;;;;7.75;4.05;;;;;;;;;;5092001;28;20166;-51
2021/01/14 12:40:50;;;;;;;4.60;4.20;;;;;;;;;;5091711;28;20736;-51
2021/01/14 12:43:15;;;;;;;5.57;4.17;;;;;;;;;;5091759;28;20419;-51
2021/01/14 12:45:42;;;;;;;4.70;4.30;;;;;;;;;;5091378;28;20465;-51
2021/01/14 12:48:08;;;;;;;7.40;4.10;;;;;;;;;;5091668;28;20879;-51
2021/01/14 12:50:34;;;;;;;5.70;4.40;;;;;;;;;;5091298;28;20252;-51
2021/01/14 12:53:00;;;;;;;5.13;4.53;;;;;;;;;;5091500;28;20550;-51
2021/01/14 12:55:26;;;;;;;8.50;5.43;;;;;;;;;;5091615;28;20504;-51
2021/01/14 12:57:52;;;;;;;11.40;5.90;;;;;;;;;;5089782;28;20252;-51
2021/01/14 13:00:18;;;;;;;4.72;4.30;;;;;;;;;;5091438;28;20441;-51
2021/01/14 13:02:44;;;;;;;6.97;4.45;;;;;;;;;;5091013;28;20193;-51
2021/01/14 13:05:12;;;;;;;5.00;4.27;;;;;;;;;;5091361;28;20226;-52
2021/01/14 13:07:38;;;;;;;6.88;5.35;;;;;;;;;;5091182;28;20409;-51
2021/01/14 13:10:04;;;;;;;5.20;4.65;;;;;;;;;;5091352;28;20180;-51
2021/01/14 13:12:30;;;;;;;5.30;4.78;;;;;;;;;;5091084;28;20239;-52
2021/01/14 13:14:56;;;;;;;16.60;5.17;;;;;;;;;;5090893;28;20203;-51
2021/01/14 13:17:22;;;;;;;5.30;4.53;;;;;;;;;;5091008;28;20889;-51
2021/01/14 13:19:48;;;;;;;5.00;4.20;;;;;;;;;;5091098;28;20452;-51
2021/01/14 13:22:14;;;;;;;7.30;4.68;;;;;;;;;;5091241;28;20511;-51
2021/01/14 13:24:40;;;;;;;6.00;4.50;;;;;;;;;;5091148;28;20206;-50
2021/01/14 13:27:06;;;;;;;5.50;5.10;;;;;;;;;;5089831;28;20482;-50
2021/01/14 13:29:32;;;;;;;5.13;4.67;;;;;;;;;;5091081;28;20399;-50
2021/01/14 13:31:58;;;;;;;6.03;4.37;;;;;;;;;;5090856;28;21017;-51
2021/01/14 13:34:24;;;;;;;6.90;5.32;;;;;;;;;;5091032;28;20399;-51
2021/01/14 13:36:51;;;;;;;4.80;3.93;;;;;;;;;;5088844;28;20787;-51
2021/01/14 13:39:18;;;;;;;5.40;4.90;;;;;;;;;;5091017;28;20485;-51
2021/01/14 13:41:48;;;;;;;4.72;4.30;;;;;;;;;;5090719;28;20738;-52
2021/01/14 13:44:14;;;;;;;7.43;4.78;;;;;;;;;;5090663;28;20167;-51
2021/01/14 13:46:40;;;;;;;4.80;4.30;;;;;;;;;;5089623;28;20788;-51
2021/01/14 13:49:06;;;;;;;7.38;4.57;;;;;;;;;;5089724;28;20450;-51
2021/01/14 13:51:33;;;;;;;4.68;4.28;;;;;;;;;;5088829;28;20211;-51
2021/01/14 13:53:59;;;;;;;5.90;4.63;;;;;;;;;;5089442;28;20175;-50
2021/01/14 13:56:26;;;;;;;5.85;5.35;;;;;;;;;;5088473;28;20183;-49
2021/01/14 13:58:52;;;;;;;4.88;4.47;;;;;;;;;;5090839;28;20559;-51
2021/01/14 14:01:22;;;;;;;5.70;4.50;;;;;;;;;;5092599;28;20301;-51
2021/01/14 14:03:48;;;;;;;4.90;4.40;;;;;;;;;;5087898;28;20767;-51
2021/01/14 14:06:14;;;;;;;6.40;5.27;;;;;;;;;;5094437;28;20229;-51
2021/01/14 14:08:40;;;;;;;4.50;4.20;;;;;;;;;;5094575;28;20789;-50
2021/01/14 14:11:06;;;;;;;4.30;3.90;;;;;;;;;;5094216;28;20458;-51
2021/01/14 14:13:31;;;;;;;10.43;4.77;;;;;;;;;;5075027;28;20489;-51
2021/01/14 14:15:57;;;;;;;5.53;4.93;;;;;;;;;;5080183;28;20401;-51
2021/01/14 14:18:25;;;;;;;6.17;4.53;;;;;;;;;;5094232;28;20446;-50
2021/01/14 14:20:51;;;;;;;4.63;4.22;;;;;;;;;;5080619;28;20432;-51
2021/01/14 14:23:17;;;;;;;7.77;5.17;;;;;;;;;;5089761;28;20235;-50
2021/01/14 14:25:44;;;;;;;8.03;4.90;;;;;;;;;;5089682;28;20798;-51
2021/01/14 14:28:10;;;;;;;6.85;4.45;;;;;;;;;;5082917;28;20475;-50
2021/01/14 14:30:36;;;;;;;6.70;4.47;;;;;;;;;;5087046;28;20163;-51
2021/01/14 14:33:02;;;;;;;8.50;5.60;;;;;;;;;;5085501;28;20972;-49
2021/01/14 14:35:28;;;;;;;5.18;4.50;;;;;;;;;;5079844;28;20416;-48
2021/01/14 14:37:54;;;;;;;7.80;4.77;;;;;;;;;;5091864;28;20170;-48
2021/01/14 14:40:20;;;;;;;6.20;4.63;;;;;;;;;;5088615;28;20463;-50
2021/01/14 14:42:46;;;;;;;7.38;4.65;;;;;;;;;;5073662;28;20417;-50
2021/01/14 14:45:12;;;;;;;6.70;4.80;;;;;;;;;;5085847;28;20198;-52
2021/01/14 14:47:38;;;;;;;7.07;5.43;;;;;;;;;;5093085;28;20418;-50